createdAt,value
2022-08-14T00:01:23.881Z,9.73
2022-08-14T00:03:50.950Z,10.73
2022-08-14T00:06:28.869Z,9.77
2022-08-14T00:08:59.011Z,10.67
2022-08-14T00:11:28.688Z,10.43
2022-08-14T00:13:58.296Z,10.97
2022-08-14T00:16:41.380Z,9.73
2022-08-14T00:19:21.176Z,8.93
2022-08-14T00:21:51.997Z,9.30
2022-08-14T00:24:28.280Z,9.27
2022-08-14T00:27:02.304Z,9.37
2022-08-14T00:29:40.154Z,9.80
2022-08-14T00:32:53.088Z,10.37
2022-08-14T00:34:57.163Z,9.97
2022-08-14T00:37:24.208Z,9.83
2022-08-14T00:39:51.280Z,9.60
2022-08-14T00:42:55.075Z,9.90
2022-08-14T00:45:12.214Z,9.73
2022-08-14T00:47:45.327Z,10.30
2022-08-14T00:50:17.612Z,9.80
2022-08-14T00:52:52.208Z,9.37
2022-08-14T00:55:20.227Z,10.13
2022-08-14T00:58:08.035Z,9.97
2022-08-14T01:00:43.102Z,9.73
2022-08-14T01:03:19.385Z,9.63
2022-08-14T01:05:52.058Z,10.30
2022-08-14T01:08:51.626Z,10.37
2022-08-14T01:11:18.801Z,9.70
2022-08-14T01:13:46.120Z,9.87
2022-08-14T01:16:28.079Z,9.43
2022-08-14T01:19:16.143Z,9.33
2022-08-14T01:21:47.175Z,9.17
2022-08-14T01:24:24.685Z,9.23
2022-08-14T01:27:00.224Z,9.67
2022-08-14T01:29:58.201Z,8.87
2022-08-14T01:32:23.153Z,8.73
2022-08-14T01:35:20.626Z,9.10
2022-08-14T01:37:44.539Z,9.30
2022-08-14T01:40:15.488Z,9.60
2022-08-14T01:42:46.879Z,9.30
2022-08-14T01:45:17.911Z,9.60
2022-08-14T01:47:52.090Z,8.77
2022-08-14T01:50:30.832Z,9.50
2022-08-14T01:53:01.264Z,8.83
2022-08-14T01:55:32.235Z,8.97
2022-08-14T01:58:01.483Z,8.90
2022-08-14T02:00:47.879Z,8.97
2022-08-14T02:03:16.001Z,8.30
2022-08-14T02:05:42.584Z,8.63
2022-08-14T02:08:10.514Z,8.13
2022-08-14T02:10:46.617Z,8.53
2022-08-14T02:13:16.761Z,8.37
2022-08-14T02:15:44.516Z,8.60
2022-08-14T02:18:11.770Z,7.63
2022-08-14T02:20:41.764Z,8.67
2022-08-14T02:23:09.079Z,8.17
2022-08-14T02:25:36.575Z,8.27
2022-08-14T02:28:25.073Z,7.93
2022-08-14T02:30:52.344Z,8.03
2022-08-14T02:33:20.560Z,8.67
2022-08-14T02:35:53.517Z,7.73
2022-08-14T02:38:29.413Z,7.97
2022-08-14T02:41:00.512Z,8.13
2022-08-14T02:43:37.184Z,8.83
2022-08-14T02:46:12.981Z,7.77
2022-08-14T02:49:01.589Z,7.93
2022-08-14T02:51:30.305Z,8.23
2022-08-14T02:53:58.537Z,9.13
2022-08-14T02:56:30.728Z,8.10
2022-08-14T02:59:14.268Z,7.87
2022-08-14T03:01:43.402Z,8.33
2022-08-14T03:04:11.904Z,7.93
2022-08-14T03:06:57.192Z,7.53
2022-08-14T03:09:42.438Z,8.03
2022-08-14T03:12:17.832Z,8.50
2022-08-14T03:14:57.375Z,8.47
2022-08-14T03:17:24.532Z,8.77
2022-08-14T03:19:52.455Z,8.00
2022-08-14T03:22:19.172Z,8.37
2022-08-14T03:24:45.870Z,8.27
2022-08-14T03:27:13.977Z,8.30
2022-08-14T03:29:40.883Z,8.33
2022-08-14T03:32:08.271Z,7.33
2022-08-14T03:34:53.050Z,7.93
2022-08-14T03:37:51.459Z,8.07
2022-08-14T03:40:12.177Z,7.70
2022-08-14T03:42:44.862Z,8.30
2022-08-14T03:45:26.174Z,8.07
2022-08-14T03:48:01.949Z,8.30
2022-08-14T03:50:31.645Z,8.03
2022-08-14T03:53:02.770Z,8.27
2022-08-14T03:55:30.821Z,8.43
2022-08-14T03:57:58.211Z,8.57
2022-08-14T04:00:43.869Z,8.33
2022-08-14T04:03:18.052Z,8.37
2022-08-14T04:05:48.807Z,8.30
2022-08-14T04:08:29.126Z,8.20
2022-08-14T04:10:57.672Z,8.40
2022-08-14T04:13:24.998Z,8.43
2022-08-14T04:16:00.998Z,7.90
2022-08-14T04:18:29.833Z,8.57
2022-08-14T04:20:58.104Z,8.27
2022-08-14T04:23:32.809Z,8.53
2022-08-14T04:26:08.232Z,8.33
2022-08-14T04:29:01.945Z,7.83
2022-08-14T04:31:25.108Z,7.93
2022-08-14T04:34:20.859Z,8.47
2022-08-14T04:37:12.495Z,8.20
2022-08-14T04:39:58.881Z,8.33
2022-08-14T04:42:47.173Z,8.20
2022-08-14T04:45:23.628Z,8.70
2022-08-14T04:48:10.352Z,8.43
2022-08-14T04:50:44.829Z,9.30
2022-08-14T04:53:17.028Z,8.10
2022-08-14T04:55:51.662Z,9.10
2022-08-14T04:58:21.487Z,8.67
2022-08-14T05:00:59.086Z,8.83
2022-08-14T05:03:31.886Z,8.70
2022-08-14T05:06:03.016Z,8.83
2022-08-14T05:08:32.304Z,9.07
2022-08-14T05:11:19.343Z,8.67
2022-08-14T05:14:43.411Z,8.60
2022-08-14T05:16:33.702Z,9.17
2022-08-14T05:19:18.109Z,9.27
2022-08-14T05:21:58.293Z,9.33
2022-08-14T05:24:27.848Z,9.83
2022-08-14T05:26:54.623Z,9.30
2022-08-14T05:29:22.128Z,9.03
2022-08-14T05:31:48.913Z,9.47
2022-08-14T05:34:17.388Z,9.33
2022-08-14T05:36:50.749Z,8.48
2022-08-14T05:39:29.485Z,9.30
2022-08-14T05:41:56.727Z,8.63
2022-08-14T05:44:27.894Z,8.30
2022-08-14T05:46:57.313Z,8.35
2022-08-14T05:49:25.980Z,8.60
2022-08-14T05:51:59.846Z,7.97
2022-08-14T05:54:30.651Z,8.38
2022-08-14T05:57:04.586Z,7.93
2022-08-14T05:59:38.807Z,8.20
2022-08-14T06:02:11.202Z,8.43
2022-08-14T06:04:39.236Z,8.90
2022-08-14T06:07:06.607Z,8.20
2022-08-14T06:09:35.389Z,9.13
2022-08-14T06:12:08.369Z,9.52
2022-08-14T06:14:35.689Z,9.57
2022-08-14T06:17:04.378Z,9.82
2022-08-14T06:19:31.313Z,10.57
2022-08-14T06:21:58.222Z,10.30
2022-08-14T06:24:26.803Z,9.77
2022-08-14T06:26:56.632Z,10.20
2022-08-14T06:29:23.805Z,10.50
2022-08-14T06:31:54.539Z,10.20
2022-08-14T06:35:03.395Z,10.40
2022-08-14T06:37:13.456Z,10.77
2022-08-14T06:39:44.446Z,10.57
2022-08-14T06:42:18.429Z,10.55
2022-08-14T06:44:58.601Z,11.35
2022-08-14T06:47:26.018Z,10.27
2022-08-14T06:49:55.978Z,11.65
2022-08-14T06:52:24.740Z,11.73
2022-08-14T06:54:51.557Z,11.98
2022-08-14T06:57:18.953Z,11.48
2022-08-14T06:59:48.389Z,11.20
2022-08-14T07:02:35.975Z,11.27
2022-08-14T07:05:23.404Z,11.87
2022-08-14T07:07:50.878Z,11.32
2022-08-14T07:10:17.775Z,11.77
2022-08-14T07:13:01.104Z,11.15
2022-08-14T07:15:29.097Z,11.40
2022-08-14T07:17:55.999Z,11.55
2022-08-14T07:20:31.427Z,11.57
2022-08-14T07:23:07.781Z,11.52
2022-08-14T07:25:37.766Z,11.43
2022-08-14T07:28:13.002Z,11.63
2022-08-14T07:30:51.402Z,11.02
2022-08-14T07:33:24.413Z,11.32
2022-08-14T07:35:58.354Z,11.57
2022-08-14T07:38:32.121Z,11.48
2022-08-14T07:41:03.053Z,11.25
2022-08-14T07:43:33.635Z,11.50
2022-08-14T07:46:00.921Z,11.82
2022-08-14T07:48:29.814Z,11.15
2022-08-14T07:51:03.157Z,11.10
2022-08-14T07:53:40.431Z,11.55
2022-08-14T07:56:21.409Z,11.60
2022-08-14T07:58:51.807Z,11.07
2022-08-14T08:01:19.184Z,11.57
2022-08-14T08:03:51.947Z,11.35
2022-08-14T08:06:26.249Z,11.80
2022-08-14T08:09:01.404Z,11.57
2022-08-14T08:11:35.031Z,11.63
2022-08-14T08:14:10.791Z,11.20
2022-08-14T08:16:51.142Z,11.77
2022-08-14T08:19:19.371Z,11.57
2022-08-14T08:21:47.044Z,11.82
2022-08-14T08:24:18.420Z,11.15
2022-08-14T08:26:47.113Z,10.73
2022-08-14T08:29:20.161Z,11.23
2022-08-14T08:31:55.116Z,11.75
2022-08-14T08:34:24.184Z,11.18
2022-08-14T08:36:51.581Z,10.10
2022-08-14T08:39:22.472Z,10.70
2022-08-14T08:41:53.425Z,10.52
2022-08-14T08:44:31.949Z,10.05
2022-08-14T08:47:05.643Z,10.55
2022-08-14T08:49:48.815Z,10.05
2022-08-14T08:52:31.380Z,10.43
2022-08-14T08:55:00.748Z,10.65
2022-08-14T08:57:35.314Z,10.18
2022-08-14T09:00:02.454Z,9.95
2022-08-14T09:02:36.628Z,10.57
2022-08-14T09:05:03.886Z,10.85
2022-08-14T09:07:31.410Z,10.68
2022-08-14T09:09:59.988Z,10.20
2022-08-14T09:12:32.352Z,10.82
2022-08-14T09:15:12.077Z,10.07
2022-08-14T09:17:41.656Z,10.68
2022-08-14T09:20:11.596Z,10.25
2022-08-14T09:22:47.295Z,10.18
2022-08-14T09:25:16.062Z,10.15
2022-08-14T09:27:42.940Z,10.75
2022-08-14T09:30:12.923Z,10.43
2022-08-14T09:33:09.055Z,10.65
2022-08-14T09:36:10.124Z,10.55
2022-08-14T09:39:02.194Z,9.48
2022-08-14T09:42:17.806Z,10.23
2022-08-14T09:44:45.663Z,10.35
2022-08-14T09:47:14.640Z,10.30
2022-08-14T09:49:42.815Z,10.38
2022-08-14T09:52:33.055Z,9.73
2022-08-14T09:55:00.343Z,10.40
2022-08-14T09:57:33.431Z,9.93
2022-08-14T10:00:11.984Z,9.30
2022-08-14T10:03:05.094Z,9.70
2022-08-14T10:05:37.842Z,9.70
2022-08-14T10:08:17.698Z,9.95
2022-08-14T10:10:57.262Z,9.18
2022-08-14T10:13:43.139Z,9.98
2022-08-14T10:16:25.974Z,9.57
2022-08-14T10:19:09.311Z,9.75
2022-08-14T10:21:38.995Z,9.45
2022-08-14T10:24:36.087Z,9.65
2022-08-14T10:27:03.854Z,10.27
2022-08-14T10:29:40.989Z,9.70
2022-08-14T10:32:18.002Z,9.43
2022-08-14T10:35:05.448Z,9.38
2022-08-14T10:37:38.820Z,9.38
2022-08-14T10:40:36.872Z,9.50
2022-08-14T10:42:54.545Z,9.50
2022-08-14T10:45:35.445Z,9.48
2022-08-14T10:48:30.796Z,9.23
2022-08-14T10:51:03.510Z,9.23
2022-08-14T10:53:39.258Z,8.90
2022-08-14T10:56:21.890Z,9.32
2022-08-14T10:59:06.899Z,9.20
2022-08-14T11:01:38.496Z,9.20
2022-08-14T11:04:25.320Z,9.57
2022-08-14T11:06:53.891Z,9.88
2022-08-14T11:09:20.502Z,9.80
2022-08-14T11:11:56.430Z,9.23
2022-08-14T11:14:51.041Z,9.07
2022-08-14T11:17:31.806Z,8.80
2022-08-14T11:20:01.119Z,9.25
2022-08-14T11:23:02.887Z,8.82
2022-08-14T11:25:18.278Z,8.98
2022-08-14T11:27:46.234Z,9.10
2022-08-14T11:30:51.188Z,9.18
2022-08-14T11:33:09.369Z,8.85
2022-08-14T11:35:47.742Z,9.57
2022-08-14T11:38:17.227Z,8.70
2022-08-14T11:40:46.688Z,8.73
2022-08-14T11:43:14.721Z,9.13
2022-08-14T11:45:48.661Z,9.32
2022-08-14T11:49:02.853Z,9.18
2022-08-14T11:51:17.907Z,9.38
2022-08-14T11:53:51.423Z,9.40
2022-08-14T11:56:18.785Z,9.25
2022-08-14T11:58:53.957Z,9.30
2022-08-14T12:01:29.392Z,9.10
2022-08-14T12:04:09.318Z,9.27
2022-08-14T12:06:56.386Z,8.80
2022-08-14T12:09:34.050Z,8.85
2022-08-14T12:12:01.980Z,8.50
2022-08-14T12:14:34.745Z,8.80
2022-08-14T12:17:09.403Z,8.90
2022-08-14T12:19:51.203Z,9.25
2022-08-14T12:22:36.223Z,10.00
2022-08-14T12:25:11.387Z,8.45
2022-08-14T12:27:53.108Z,9.13
2022-08-14T12:30:43.798Z,9.05
2022-08-14T12:33:31.034Z,9.63
2022-08-14T12:36:05.464Z,9.30
2022-08-14T12:38:38.382Z,8.85
2022-08-14T12:41:11.135Z,9.27
2022-08-14T12:43:56.455Z,8.48
2022-08-14T12:46:35.188Z,8.90
2022-08-14T12:49:09.581Z,8.30
2022-08-14T12:51:37.665Z,8.60
2022-08-14T12:54:19.422Z,8.45
2022-08-14T12:57:09.181Z,8.20
2022-08-14T12:59:42.568Z,8.48
2022-08-14T13:02:22.198Z,9.38
2022-08-14T13:04:58.031Z,8.18
2022-08-14T13:07:32.698Z,8.38
2022-08-14T13:10:00.347Z,8.52
2022-08-14T13:12:32.043Z,8.07
2022-08-14T13:15:09.250Z,8.30
2022-08-14T13:17:44.052Z,8.30
2022-08-14T13:20:23.250Z,8.05
2022-08-14T13:22:52.844Z,8.60
2022-08-14T13:25:24.615Z,8.15
2022-08-14T13:27:55.126Z,8.10
2022-08-14T13:30:24.947Z,8.07
2022-08-14T13:32:58.382Z,7.78
2022-08-14T13:35:25.778Z,7.38
2022-08-14T13:37:53.675Z,7.28
2022-08-14T13:40:26.677Z,7.88
2022-08-14T13:42:57.060Z,7.53
2022-08-14T13:45:59.978Z,7.10
2022-08-14T13:48:27.417Z,7.00
2022-08-14T13:51:04.529Z,7.78
2022-08-14T13:53:34.992Z,7.82
2022-08-14T13:56:05.386Z,7.25
2022-08-14T13:58:35.586Z,7.90
2022-08-14T14:01:04.554Z,8.50
2022-08-14T14:03:35.228Z,7.95
2022-08-14T14:06:03.598Z,7.75
2022-08-14T14:08:45.618Z,8.10
2022-08-14T14:11:24.110Z,7.97
2022-08-14T14:13:55.359Z,7.78
2022-08-14T14:16:30.301Z,8.13
2022-08-14T14:19:06.904Z,7.40
2022-08-14T14:21:36.277Z,7.70
2022-08-14T14:24:04.821Z,7.63
2022-08-14T14:26:33.327Z,7.40
2022-08-14T14:29:04.410Z,7.18
2022-08-14T14:31:32.359Z,7.30
2022-08-14T14:34:12.407Z,7.60
2022-08-14T14:36:52.451Z,7.30
2022-08-14T14:39:22.256Z,7.65
2022-08-14T14:41:56.055Z,6.70
2022-08-14T14:44:25.521Z,7.78
2022-08-14T14:46:53.957Z,6.90
2022-08-14T14:49:22.199Z,7.68
2022-08-14T14:51:58.805Z,6.88
2022-08-14T14:54:31.520Z,7.10
2022-08-14T14:57:09.302Z,7.50
2022-08-14T14:59:37.288Z,7.53
2022-08-14T15:02:08.100Z,6.90
2022-08-14T15:04:37.811Z,7.00
2022-08-14T15:07:05.801Z,7.03
2022-08-14T15:09:33.982Z,7.18
2022-08-14T15:12:00.816Z,6.95
2022-08-14T15:14:55.224Z,7.28
2022-08-14T15:17:20.984Z,7.05
2022-08-14T15:19:56.163Z,6.90
2022-08-14T15:22:25.304Z,6.63
2022-08-14T15:24:52.090Z,6.70
2022-08-14T15:27:21.402Z,7.45
2022-08-14T15:29:53.635Z,6.80
2022-08-14T15:32:23.173Z,6.85
2022-08-14T15:34:51.475Z,7.32
2022-08-14T15:37:22.766Z,8.25
2022-08-14T15:39:52.618Z,6.95
2022-08-14T15:42:23.008Z,7.85
2022-08-14T15:44:57.830Z,6.80
2022-08-14T15:47:30.651Z,7.25
2022-08-14T15:50:02.956Z,6.95
2022-08-14T15:52:35.342Z,7.13
2022-08-14T15:55:08.518Z,12.57
2022-08-14T15:57:36.552Z,16.50
2022-08-14T16:00:43.907Z,7.40
2022-08-14T16:03:14.301Z,7.00
2022-08-14T16:05:43.622Z,6.63
2022-08-14T16:08:24.333Z,7.20
2022-08-14T16:10:57.651Z,7.05
2022-08-14T16:13:39.163Z,6.75
2022-08-14T16:16:46.949Z,8.07
2022-08-14T16:18:58.222Z,7.45
2022-08-14T16:21:29.624Z,6.75
2022-08-14T16:24:00.049Z,6.78
2022-08-14T16:26:29.395Z,7.40
2022-08-14T16:29:05.448Z,7.10
2022-08-14T16:31:36.077Z,7.35
2022-08-14T16:34:46.057Z,7.25
2022-08-14T16:36:51.371Z,6.72
2022-08-14T16:39:18.236Z,7.38
2022-08-14T16:41:45.686Z,6.88
2022-08-14T16:44:22.081Z,7.25
2022-08-14T16:47:02.654Z,6.95
2022-08-14T16:50:03.283Z,6.78
2022-08-14T16:52:25.990Z,6.90
2022-08-14T16:55:07.886Z,6.47
2022-08-14T16:57:35.139Z,7.18
2022-08-14T17:00:07.153Z,6.88
2022-08-14T17:02:46.525Z,7.05
2022-08-14T17:05:25.159Z,7.47
2022-08-14T17:08:28.332Z,7.55
2022-08-14T17:10:51.568Z,7.78
2022-08-14T17:13:27.009Z,8.07
2022-08-14T17:16:24.948Z,7.53
2022-08-14T17:19:03.826Z,7.95
2022-08-14T17:21:41.552Z,7.32
2022-08-14T17:27:00.148Z,7.60
2022-08-14T17:29:33.278Z,7.35
2022-08-14T17:32:29.280Z,7.78
2022-08-14T17:34:55.404Z,7.45
2022-08-14T17:37:34.203Z,7.93
2022-08-14T17:40:18.013Z,7.90
2022-08-14T17:42:51.311Z,8.35
2022-08-14T17:45:41.582Z,8.00
2022-08-14T17:49:10.690Z,7.68
2022-08-14T17:51:23.374Z,7.75
2022-08-14T17:54:01.227Z,8.00
2022-08-14T17:56:31.877Z,7.65
2022-08-14T17:59:06.242Z,8.32
2022-08-14T18:01:38.788Z,8.52
2022-08-14T18:04:24.980Z,8.52
2022-08-14T18:07:06.043Z,8.95
2022-08-14T18:09:57.460Z,8.48
2022-08-14T18:12:32.398Z,7.65
2022-08-14T18:15:16.091Z,8.35
2022-08-14T18:17:52.712Z,8.55
2022-08-14T18:21:24.177Z,8.52
2022-08-14T18:23:08.504Z,8.80
2022-08-14T18:25:51.864Z,9.00
2022-08-14T18:28:51.241Z,8.30
2022-08-14T18:31:43.612Z,8.90
2022-08-14T18:34:12.240Z,8.95
2022-08-14T18:36:57.777Z,8.85
2022-08-14T18:39:34.806Z,9.07
2022-08-14T18:42:23.341Z,8.88
2022-08-14T18:44:50.711Z,8.85
2022-08-14T18:47:20.211Z,9.02
2022-08-14T18:49:53.155Z,9.18
2022-08-14T18:52:29.658Z,9.13
2022-08-14T18:54:59.525Z,8.90
2022-08-14T18:57:27.157Z,8.73
2022-08-14T19:00:43.191Z,8.98
2022-08-14T19:03:18.062Z,8.30
2022-08-14T19:05:49.330Z,9.23
2022-08-14T19:08:18.667Z,8.90
2022-08-14T19:10:57.382Z,8.57
2022-08-14T19:13:48.153Z,9.13
2022-08-14T19:16:22.862Z,9.10
2022-08-14T19:19:01.931Z,10.38
2022-08-14T19:21:39.947Z,9.05
2022-08-14T19:24:29.320Z,8.77
2022-08-14T19:27:24.530Z,9.02
2022-08-14T19:30:19.862Z,8.82
2022-08-14T19:32:53.055Z,8.98
2022-08-14T19:35:55.279Z,8.98
2022-08-14T19:38:44.414Z,9.07
2022-08-14T19:41:16.171Z,9.05
2022-08-14T19:43:50.658Z,9.95
2022-08-14T19:46:38.792Z,9.15
2022-08-14T19:49:12.383Z,9.17
2022-08-14T19:51:43.813Z,9.43
2022-08-14T19:54:13.769Z,9.17
2022-08-14T19:56:46.082Z,9.20
2022-08-14T19:59:19.289Z,8.60
2022-08-14T20:01:50.499Z,8.93
2022-08-14T20:04:47.715Z,8.60
2022-08-14T20:07:27.309Z,8.73
2022-08-14T20:11:05.558Z,8.47
2022-08-14T20:13:32.520Z,9.27
2022-08-14T20:16:11.971Z,9.20
2022-08-14T20:18:50.830Z,9.40
2022-08-14T20:21:18.577Z,8.57
2022-08-14T20:23:47.837Z,9.13
2022-08-14T20:26:30.486Z,9.13
2022-08-14T20:29:06.984Z,9.93
2022-08-14T20:31:37.579Z,8.70
2022-08-14T20:34:18.728Z,9.20
2022-08-14T20:37:11.717Z,9.17
2022-08-14T20:39:43.722Z,9.53
2022-08-14T20:42:32.500Z,9.70
2022-08-14T20:45:18.002Z,9.13
2022-08-14T20:48:07.452Z,9.50
2022-08-14T20:50:36.749Z,10.30
2022-08-14T20:53:35.462Z,9.73
2022-08-14T20:56:28.976Z,9.93
2022-08-14T20:58:53.741Z,9.97
2022-08-14T21:01:20.313Z,10.00
2022-08-14T21:03:57.212Z,9.73
2022-08-14T21:07:22.715Z,9.73
2022-08-14T21:10:05.535Z,10.80
2022-08-14T21:12:34.938Z,10.20
2022-08-14T21:15:10.032Z,10.53
2022-08-14T21:17:38.309Z,9.70
2022-08-14T21:20:25.466Z,9.50
2022-08-14T21:22:54.169Z,10.03
2022-08-14T21:25:23.322Z,10.20
2022-08-14T21:27:57.225Z,10.67
2022-08-14T21:30:46.674Z,9.80
2022-08-14T21:33:13.084Z,10.40
2022-08-14T21:35:45.628Z,10.40
2022-08-14T21:38:17.936Z,9.90
2022-08-14T21:40:48.120Z,10.13
2022-08-14T21:43:19.610Z,9.60
2022-08-14T21:45:53.472Z,10.63
2022-08-14T21:48:26.549Z,10.00
2022-08-14T21:51:02.030Z,10.63
2022-08-14T21:53:59.098Z,9.40
2022-08-14T21:56:38.926Z,10.33
2022-08-14T21:59:17.862Z,10.33
2022-08-14T22:02:00.903Z,10.40
2022-08-14T22:04:40.338Z,9.63
2022-08-14T22:07:10.270Z,10.33
2022-08-14T22:09:37.163Z,10.63
2022-08-14T22:12:08.339Z,10.23
2022-08-14T22:14:43.650Z,10.40
2022-08-14T22:17:17.231Z,11.17
2022-08-14T22:19:54.520Z,10.37
2022-08-14T22:22:23.952Z,10.93
2022-08-14T22:24:59.745Z,10.53
2022-08-14T22:27:32.235Z,10.10
2022-08-14T22:30:00.146Z,10.70
2022-08-14T22:32:56.973Z,10.40
2022-08-14T22:35:14.097Z,10.53
2022-08-14T22:37:44.448Z,10.73
2022-08-14T22:40:46.674Z,10.33
2022-08-14T22:43:07.985Z,10.43
2022-08-14T22:45:36.424Z,10.03
2022-08-14T22:48:10.869Z,10.67
2022-08-14T22:50:48.933Z,10.67
2022-08-14T22:53:20.372Z,9.67
2022-08-14T22:55:46.998Z,10.03
2022-08-14T22:58:17.119Z,9.60
2022-08-14T23:00:45.362Z,9.87
2022-08-14T23:03:17.551Z,10.33
2022-08-14T23:05:51.698Z,10.60
2022-08-14T23:09:01.545Z,9.73
2022-08-14T23:11:10.206Z,10.10
2022-08-14T23:13:43.394Z,9.53
2022-08-14T23:16:10.964Z,10.00
2022-08-14T23:18:47.984Z,10.03
2022-08-14T23:21:24.361Z,10.23
2022-08-14T23:23:55.009Z,10.23
2022-08-14T23:26:48.966Z,9.93
2022-08-14T23:29:11.353Z,9.90
2022-08-14T23:31:39.355Z,9.57
2022-08-14T23:34:10.004Z,9.93
2022-08-14T23:36:54.310Z,10.13
2022-08-14T23:39:29.494Z,10.63
2022-08-14T23:42:02.329Z,10.17
2022-08-14T23:44:34.889Z,10.10
2022-08-14T23:47:03.254Z,10.37
2022-08-14T23:49:56.908Z,10.03
2022-08-14T23:52:55.558Z,9.67
2022-08-14T23:55:11.285Z,9.73
2022-08-14T23:57:44.108Z,9.40
